»·PEaware :: ASA51 PANC-PABR

ASA51 :: PANC-PABR

FLIGHT INFORMATION

Flight Status: Arrived
Operator:
Alaska Airlines
More flights by this operator :: More flights under this callsign
Pilot: Cooper L. (8467)
Aircraft: BOEING 737-800
(B738)
More flights by this aircraft type
Origin: PANC Stevens Anchorage Intl
United States
Destination: PABR Wiley Post-Will Rogers Meml
United States
More flights between these airports :: More routes between these airports
Route: KUTDEBRONX CHIPS LEDHO
File this flight plan on PilotEdge
Remarks:
Altitude:
(Current/Filed)
36,000ft
Speed:
(Current/Filed)
410kts
Departed: 07-Jul-17 08:55 PM
Arrived: 07-Jul-17 10:34 PM
Distance/Time
Traveled:
628nm/1:39
Distance/Time
To Go:
Arrived

Flight Plot

Page will automatically refresh every two minutes.

Flight plan parsing failed; only flown route is shown


Map Options




Map Legend


Flown Route
Filed Route
Departure Airport
Arrival Airport
Navaid (VOR, NDB)
Fix

Horizontal Profiles

Position Reports

Time Latitude Longitude Heading Altitude Ground
Speed
07-Jul-17 20:40 61.176120 -149.984980 115 104ft 0kts
07-Jul-17 20:41 61.176120 -149.984980 115 104ft 0kts
07-Jul-17 20:42 61.176120 -149.984980 115 104ft 0kts
07-Jul-17 20:43 61.176120 -149.984980 115 104ft 0kts
07-Jul-17 20:44 61.176120 -149.984980 115 104ft 0kts
07-Jul-17 20:45 61.176120 -149.984980 115 104ft 0kts
07-Jul-17 20:46 61.176120 -149.984980 115 104ft 0kts
07-Jul-17 20:47 61.176120 -149.984980 115 104ft 0kts
07-Jul-17 20:48 61.176120 -149.984980 115 104ft 0kts
07-Jul-17 20:49 61.176120 -149.984979 115 104ft 0kts
07-Jul-17 20:50 61.176120 -149.984979 115 104ft 0kts
07-Jul-17 20:51 61.176120 -149.984979 115 104ft 0kts
07-Jul-17 20:52 61.176120 -149.984979 115 104ft 0kts
07-Jul-17 20:53 61.176124 -149.984999 115 104ft 1kts
07-Jul-17 20:54 61.176385 -149.987133 158 103ft 2kts
07-Jul-17 20:55 61.172962 -149.987252 213 110ft 21kts
07-Jul-17 20:56 61.171218 -149.973530 85 103ft 38kts
07-Jul-17 20:57 61.168867 -149.969749 249 105ft 26kts
07-Jul-17 20:58 61.167897 -150.016199 270 244ft 172kts
07-Jul-17 20:59 61.178894 -150.116197 311 1986ft 223kts
07-Jul-17 21:00 61.241568 -150.137388 18 4416ft 271kts
07-Jul-17 21:01 61.312082 -150.086941 17 7883ft 267kts
07-Jul-17 21:02 61.386486 -150.074718 358 10633ft 285kts
07-Jul-17 21:03 61.477687 -150.101298 353 11884ft 357kts
07-Jul-17 21:04 61.576823 -150.140712 352 14684ft 371kts
07-Jul-17 21:05 61.679650 -150.183310 352 17156ft 387kts
07-Jul-17 21:06 61.787094 -150.228366 352 19447ft 403kts
07-Jul-17 21:07 61.898455 -150.275401 353 21588ft 417kts
07-Jul-17 21:08 62.013756 -150.324519 353 23541ft 431kts
07-Jul-17 21:09 62.132480 -150.375490 353 25330ft 444kts
07-Jul-17 21:10 62.254470 -150.428415 353 27090ft 453kts
07-Jul-17 21:11 62.377018 -150.481865 354 29092ft 449kts
07-Jul-17 21:12 62.498815 -150.535471 354 30723ft 448kts
07-Jul-17 21:13 62.620338 -150.589411 354 32123ft 446kts
07-Jul-17 21:14 62.741364 -150.643557 354 33317ft 446kts
07-Jul-17 21:15 62.861389 -150.697724 353 34352ft 445kts
07-Jul-17 21:16 62.982035 -150.752642 354 35318ft 443kts
07-Jul-17 21:17 63.100318 -150.806919 354 36070ft 436kts
07-Jul-17 21:18 63.219245 -150.861877 354 36096ft 447kts
07-Jul-17 21:19 63.333917 -150.915316 353 36104ft 463kts
07-Jul-17 21:20 63.436784 -150.963713 353 36100ft 478kts
07-Jul-17 21:21 63.564227 -151.024150 353 36092ft 488kts
07-Jul-17 21:22 63.679648 -151.079387 353 36052ft 483kts
07-Jul-17 21:23 63.793966 -151.134510 353 36029ft 479kts
07-Jul-17 21:24 63.916923 -151.194298 352 36003ft 476kts
07-Jul-17 21:25 64.031746 -151.250675 352 36002ft 476kts
07-Jul-17 21:26 64.144753 -151.306590 352 36004ft 477kts
07-Jul-17 21:27 64.273947 -151.371103 352 36002ft 476kts
07-Jul-17 21:28 64.402690 -151.435987 352 36001ft 476kts
07-Jul-17 21:29 64.526551 -151.499024 352 35998ft 476kts
07-Jul-17 21:30 64.655482 -151.565227 352 36005ft 477kts
07-Jul-17 21:31 64.784607 -151.632199 352 36004ft 476kts
07-Jul-17 21:32 64.913364 -151.699613 351 35995ft 477kts
07-Jul-17 21:33 65.042423 -151.767921 351 35999ft 476kts
07-Jul-17 21:34 65.171244 -151.836714 351 36001ft 476kts
07-Jul-17 21:35 65.299918 -151.906127 351 36002ft 476kts
07-Jul-17 21:36 65.429197 -151.976613 351 36003ft 476kts
07-Jul-17 21:37 65.558260 -152.047657 351 36002ft 476kts
07-Jul-17 21:38 65.687046 -152.119297 351 35998ft 477kts
07-Jul-17 21:39 65.815883 -152.191682 351 35996ft 477kts
07-Jul-17 21:40 65.944388 -152.264624 351 36002ft 477kts
07-Jul-17 21:41 66.073156 -152.338486 351 36004ft 476kts
07-Jul-17 21:42 66.201711 -152.412978 351 36004ft 476kts
07-Jul-17 21:43 66.330348 -152.488367 351 36018ft 476kts
07-Jul-17 21:44 66.459415 -152.564905 351 36027ft 477kts
07-Jul-17 21:45 66.587719 -152.641838 351 36011ft 477kts
07-Jul-17 21:46 66.716323 -152.719746 350 36022ft 477kts
07-Jul-17 21:47 66.844826 -152.798501 350 36031ft 477kts
07-Jul-17 21:48 66.973578 -152.878231 350 36044ft 477kts
07-Jul-17 21:49 67.101106 -152.958040 350 36037ft 474kts
07-Jul-17 21:50 67.227942 -153.038283 350 36033ft 470kts
07-Jul-17 21:51 67.354534 -153.119260 350 36044ft 467kts
07-Jul-17 21:52 67.479969 -153.200385 350 36041ft 467kts
07-Jul-17 21:53 67.606011 -153.282785 350 36035ft 467kts
07-Jul-17 21:54 67.731306 -153.365585 350 36030ft 467kts
07-Jul-17 21:55 67.857172 -153.449724 350 36032ft 467kts
07-Jul-17 21:56 67.982440 -153.534390 350 36032ft 467kts
07-Jul-17 21:57 68.107883 -153.620138 350 36026ft 467kts
07-Jul-17 21:58 68.233341 -153.706838 349 36027ft 468kts
07-Jul-17 21:59 68.337728 -153.779692 349 36029ft 467kts
07-Jul-17 22:00 68.484259 -153.883197 349 36028ft 468kts
07-Jul-17 22:01 68.588684 -153.957833 349 36028ft 467kts
07-Jul-17 22:02 68.713906 -154.048235 349 36027ft 468kts
07-Jul-17 22:03 68.839358 -154.139868 349 36027ft 468kts
07-Jul-17 22:04 68.964550 -154.232408 349 36026ft 468kts
07-Jul-17 22:05 69.089959 -154.326212 349 36024ft 468kts
07-Jul-17 22:06 69.215183 -154.420966 349 36020ft 468kts
07-Jul-17 22:07 69.340439 -154.516908 349 35938ft 469kts
07-Jul-17 22:08 69.465661 -154.613948 349 34899ft 469kts
07-Jul-17 22:09 69.612740 -154.729400 348 32942ft 473kts
07-Jul-17 22:10 69.718801 -154.813715 348 31557ft 477kts
07-Jul-17 22:11 69.840763 -154.911993 348 29303ft 440kts
07-Jul-17 22:12 69.956332 -155.005877 348 26739ft 428kts
07-Jul-17 22:13 70.068982 -155.101950 341 24731ft 422kts
07-Jul-17 22:14 70.174777 -155.238456 339 22750ft 410kts
07-Jul-17 22:15 70.276931 -155.374590 339 20750ft 399kts
07-Jul-17 22:16 70.376425 -155.508835 338 18745ft 388kts
07-Jul-17 22:17 70.472704 -155.640137 338 16748ft 377kts
07-Jul-17 22:18 70.565927 -155.768938 336 14751ft 367kts
07-Jul-17 22:19 70.655411 -155.893988 336 12781ft 357kts
07-Jul-17 22:20 70.743501 -156.018196 336 10787ft 346kts
07-Jul-17 22:21 70.828952 -156.139956 336 9956ft 335kts
07-Jul-17 22:22 70.909044 -156.255107 335 8850ft 304kts
07-Jul-17 22:23 70.983022 -156.362334 335 7814ft 290kts
07-Jul-17 22:24 71.056134 -156.468786 335 6164ft 292kts
07-Jul-17 22:25 71.128836 -156.574717 335 4504ft 291kts
07-Jul-17 22:26 71.201317 -156.681211 334 2823ft 288kts
07-Jul-17 22:27 71.269985 -156.790475 314 1953ft 253kts
07-Jul-17 22:28 71.283677 -156.981532 274 1995ft 228kts
07-Jul-17 22:29 71.300288 -157.168709 269 2006ft 227kts
07-Jul-17 22:30 71.280507 -157.335260 260 1849ft 182kts
07-Jul-17 22:31 71.255200 -157.461198 283 1696ft 186kts
07-Jul-17 22:32 71.293911 -157.453901 74 1696ft 182kts
07-Jul-17 22:33 71.288602 -157.299867 96 1743ft 180kts
07-Jul-17 22:34 71.286609 -157.143420 92 1691ft 181kts
07-Jul-17 22:35 71.285884 -156.989125 92 1240ft 163kts
07-Jul-17 22:36 71.285242 -156.860750 92 451ft 145kts
07-Jul-17 22:37 71.284730 -156.777031 91 21ft 7kts
07-Jul-17 22:38 71.285931 -156.781096 8 21ft 13kts

Navigation Log

Ident Type
Flight plan parsing failed, navigation log unavailable